Zelinsky — WDJ5037 — position and weather

sailwx.info

Track history (hours):
 
Tides and Currents Weather Stations Pressure Air Temp Water Temp Dewpoint Dewpoint Depression Visibility Wind Speed Wind Dir Waves Ship Positions

Zelinsky

Owner: Hornblower Metro Ferry Fleet LLC, New York, NY. More information available from US FCC via Universal Licensing System and Coast Guard Vessel Documentation Center.

Last reported at 2017-Oct-13 19:12 UTC. Time now 2017-Oct-19 02:19 UTC.
Position N 40°43' W 074°03'.

Length 28 m.

Type: Passenger vessel. MMSI: 367783630.

Date/timePositionNaut miles runAvg speedWind from/ knotsBaromVisibWave heightAir tempDewpointWater temp
2017-Oct-13 19:12N 40°43' W 074°03'0 1.3
2017-Oct-13 19:00N 40°43' W 074°03'2 3.5
2017-Oct-13 18:28N 40°44' W 074°01'0 0.0
2017-Oct-13 17:59N 40°44' W 074°01'0 0.0
2017-Oct-13 17:28N 40°44' W 074°01'0 0.0
2017-Oct-13 16:59N 40°44' W 074°01'0 0.0
2017-Oct-13 16:28N 40°44' W 074°01'0 0.0
2017-Oct-13 15:59N 40°44' W 074°01'0 0.0
2017-Oct-13 15:29N 40°44' W 074°01'0 0.0
2017-Oct-13 14:58N 40°44' W 074°01'  
2017-Oct-09 01:36N 40°42' W 074°00'0 0.1
2017-Oct-09 01:30N 40°42' W 074°00'913.9
2017-Oct-09 00:51N 40°34' W 073°57'412.0
2017-Oct-09 00:29N 40°35' W 073°51'919.3
2017-Oct-09 00:01N 40°38' W 074°02'4 7.6
2017-Oct-08 23:28N 40°42' W 074°00'613.4
2017-Oct-08 23:00N 40°36' W 074°02'9 8.3
2017-Oct-08 21:52N 40°35' W 073°50'719.0
2017-Oct-08 21:30N 40°34' W 073°59'815.4
2017-Oct-08 20:58N 40°42' W 074°00'0 0.0
2017-Oct-08 20:28N 40°42' W 074°00'0 0.2
2017-Oct-08 20:00N 40°42' W 074°00'11 9.3
2017-Oct-08 18:52N 40°35' W 073°50'514.5
2017-Oct-08 18:30N 40°34' W 073°57'917.0
2017-Oct-08 17:59N 40°42' W 074°00'0 0.0
2017-Oct-08 17:29N 40°42' W 074°00'0 0.2
2017-Oct-08 17:00N 40°42' W 074°00'10 8.7
2017-Oct-08 15:49N 40°35' W 073°50'722.9
2017-Oct-08 15:29N 40°34' W 073°60'815.6
2017-Oct-08 14:58N 40°42' W 074°00'0 0.5
2017-Oct-08 14:30N 40°42' W 074°00'0 0.0
2017-Oct-08 02:40N 40°42' W 074°00'0 0.0
2017-Oct-08 02:28N 40°42' W 074°00'0 0.4
2017-Oct-08 02:00N 40°42' W 074°00'918.0
2017-Oct-08 01:30N 40°34' W 073°56'5 9.1
2017-Oct-08 01:00N 40°35' W 073°50'1019.6
2017-Oct-08 00:30N 40°37' W 074°03'510.0
2017-Oct-07 23:59N 40°42' W 074°00'0 0.0
2017-Oct-07 23:29N 40°42' W 074°00'713.5
2017-Oct-07 23:00N 40°36' W 074°02'9 7.6
2017-Oct-07 21:47N 40°35' W 073°50'723.9
2017-Oct-07 21:30N 40°34' W 073°59'815.9
2017-Oct-07 20:59N 40°42' W 074°00'0 0.0
2017-Oct-07 20:26N 40°42' W 074°00'0 0.0
2017-Oct-07 19:59N 40°42' W 074°00'715.2
2017-Oct-07 19:30N 40°35' W 074°01'913.2
2017-Oct-07 18:51N 40°35' W 073°50'721.5
2017-Oct-07 18:30N 40°34' W 073°60'815.6
2017-Oct-07 17:58N 40°42' W 074°00'0 0.0
2017-Oct-07 17:25N 40°42' W 074°00'0 0.0
2017-Oct-07 17:00N 40°42' W 074°00'713.7
2017-Oct-07 16:30N 40°35' W 074°02'914.1
2017-Oct-07 15:52N 40°35' W 073°50'720.9
2017-Oct-07 15:30N 40°34' W 073°60'815.8
2017-Oct-07 14:59N 40°42' W 074°00'0 0.4
2017-Oct-07 14:28N 40°42' W 074°00'0 0.0
2017-Oct-07 13:55N 40°42' W 074°00'0 0.0
2017-Oct-07 13:28N 40°42' W 074°00'0 0.0
2017-Oct-06 21:03N 40°42' W 074°00'0 0.0
2017-Oct-06 21:00N 40°42' W 074°00'2 3.6
2017-Oct-06 20:30N 40°43' W 074°03'0 0.0
2017-Oct-06 20:00N 40°43' W 074°03'2 3.6
2017-Oct-06 19:30N 40°44' W 074°01'0 0.0
2017-Oct-06 19:00N 40°44' W 074°01'0 0.0
2017-Oct-06 18:30N 40°44' W 074°01'0 0.0
2017-Oct-06 18:00N 40°44' W 074°01'0 0.0
2017-Oct-06 17:30N 40°44' W 074°01'  
Track history (hours):
 
Tides and Currents Weather Stations Pressure Air Temp Water Temp Dewpoint Dewpoint Depression Visibility Wind Speed Wind Dir Waves Ship Positions

Zelinsky

Owner: Hornblower Metro Ferry Fleet LLC, New York, NY. More information available from US FCC via Universal Licensing System and Coast Guard Vessel Documentation Center.

Last reported at 2017-Oct-13 19:12 UTC. Time now 2017-Oct-19 02:19 UTC.
Position N 40°43' W 074°03'.

Length 28 m.

Type: Passenger vessel. MMSI: 367783630.

Date/timePositionNaut miles runAvg speedWind from/ knotsBaromVisibWave heightAir tempDewpointWater temp
2017-Oct-13 19:12N 40°43' W 074°03'0 1.3
2017-Oct-13 19:00N 40°43' W 074°03'2 3.5
2017-Oct-13 18:28N 40°44' W 074°01'0 0.0
2017-Oct-13 17:59N 40°44' W 074°01'0 0.0
2017-Oct-13 17:28N 40°44' W 074°01'0 0.0
2017-Oct-13 16:59N 40°44' W 074°01'0 0.0
2017-Oct-13 16:28N 40°44' W 074°01'0 0.0
2017-Oct-13 15:59N 40°44' W 074°01'0 0.0
2017-Oct-13 15:29N 40°44' W 074°01'0 0.0
2017-Oct-13 14:58N 40°44' W 074°01'  
2017-Oct-09 01:36N 40°42' W 074°00'0 0.1
2017-Oct-09 01:30N 40°42' W 074°00'913.9
2017-Oct-09 00:51N 40°34' W 073°57'412.0
2017-Oct-09 00:29N 40°35' W 073°51'919.3
2017-Oct-09 00:01N 40°38' W 074°02'4 7.6
2017-Oct-08 23:28N 40°42' W 074°00'613.4
2017-Oct-08 23:00N 40°36' W 074°02'9 8.3
2017-Oct-08 21:52N 40°35' W 073°50'719.0
2017-Oct-08 21:30N 40°34' W 073°59'815.4
2017-Oct-08 20:58N 40°42' W 074°00'0 0.0
2017-Oct-08 20:28N 40°42' W 074°00'0 0.2
2017-Oct-08 20:00N 40°42' W 074°00'11 9.3
2017-Oct-08 18:52N 40°35' W 073°50'514.5
2017-Oct-08 18:30N 40°34' W 073°57'917.0
2017-Oct-08 17:59N 40°42' W 074°00'0 0.0
2017-Oct-08 17:29N 40°42' W 074°00'0 0.2
2017-Oct-08 17:00N 40°42' W 074°00'10 8.7
2017-Oct-08 15:49N 40°35' W 073°50'722.9
2017-Oct-08 15:29N 40°34' W 073°60'815.6
2017-Oct-08 14:58N 40°42' W 074°00'0 0.5
2017-Oct-08 14:30N 40°42' W 074°00'0 0.0
2017-Oct-08 02:40N 40°42' W 074°00'0 0.0
2017-Oct-08 02:28N 40°42' W 074°00'0 0.4
2017-Oct-08 02:00N 40°42' W 074°00'918.0
2017-Oct-08 01:30N 40°34' W 073°56'5 9.1
2017-Oct-08 01:00N 40°35' W 073°50'1019.6
2017-Oct-08 00:30N 40°37' W 074°03'510.0
2017-Oct-07 23:59N 40°42' W 074°00'0 0.0
2017-Oct-07 23:29N 40°42' W 074°00'713.5
2017-Oct-07 23:00N 40°36' W 074°02'9 7.6
2017-Oct-07 21:47N 40°35' W 073°50'723.9
2017-Oct-07 21:30N 40°34' W 073°59'815.9
2017-Oct-07 20:59N 40°42' W 074°00'0 0.0
2017-Oct-07 20:26N 40°42' W 074°00'0 0.0
2017-Oct-07 19:59N 40°42' W 074°00'715.2
2017-Oct-07 19:30N 40°35' W 074°01'913.2
2017-Oct-07 18:51N 40°35' W 073°50'721.5
2017-Oct-07 18:30N 40°34' W 073°60'815.6
2017-Oct-07 17:58N 40°42' W 074°00'0 0.0
2017-Oct-07 17:25N 40°42' W 074°00'0 0.0
2017-Oct-07 17:00N 40°42' W 074°00'713.7
2017-Oct-07 16:30N 40°35' W 074°02'914.1
2017-Oct-07 15:52N 40°35' W 073°50'720.9
2017-Oct-07 15:30N 40°34' W 073°60'815.8
2017-Oct-07 14:59N 40°42' W 074°00'0 0.4
2017-Oct-07 14:28N 40°42' W 074°00'0 0.0
2017-Oct-07 13:55N 40°42' W 074°00'0 0.0
2017-Oct-07 13:28N 40°42' W 074°00'0 0.0
2017-Oct-06 21:03N 40°42' W 074°00'0 0.0
2017-Oct-06 21:00N 40°42' W 074°00'2 3.6
2017-Oct-06 20:30N 40°43' W 074°03'0 0.0
2017-Oct-06 20:00N 40°43' W 074°03'2 3.6
2017-Oct-06 19:30N 40°44' W 074°01'0 0.0
2017-Oct-06 19:00N 40°44' W 074°01'0 0.0
2017-Oct-06 18:30N 40°44' W 074°01'0 0.0
2017-Oct-06 18:00N 40°44' W 074°01'0 0.0
2017-Oct-06 17:30N 40°44' W 074°01'  

Dump ship's entire track history